Bushehr International Airport

Airport
ICAO code: 
OIBB
IATA Code: 
BUZ
Summary
ICAO Region: 
MID
Territory: 
Location: 
Bandar Bushehr, Bushehr
Serving: 
Bandar Bushehr
Elevation: 
68 ft
Coordinates: 
Aerial View: 
28° 57' 28.614" N, 50° 49' 31.583" E
Metar
Observation
OIBB 262000Z 32019KT 2500 DU NSC 35/19 Q0998 A2948
Station
Bushehr Civ / Afb
Date/Time
2022-06-26 20:00:00
Wind direction
320°
Wind speed
19 kts
Lowest cloud amount
nil significant cloud
Temperature
35°C
Dew point
19°C
Humidity
39%
QNH
998 hPa
Weather condition
n/a

A joint civil and military airport in Bushehr, Iran.

Climatology

Hot Semi-arid climate (Köppen climate classification BSh).

Runways

Designator Length Width Surface Rops
13L/31R 4469 45 ASP No/No
13R/31L 4470 45 ASP No/No
Airport map: 
Aerial View: 

SKYbrary Partners:

Safety knowledge contributed by: